Eye, United Kingdom
Current Conditions -  °F | °C
As of 2:50 AM on Saturday 29 Nov 2014 (Local Time) from EGUW Reporting Station
Haze Haze  
Wind Chill: 44°   Ceiling: Unl
Heat Index: 48°   Visibility: 6mi
Dew Point: 46°   Wind: 9mph
Humidity: 93%   Direction: 100°E
Pressure: 29.8"   Gusts: NA
Location:  52.32°N, 1.15°E
Report Text: EGUW 290250Z AUTO 10008KT 9000 HZ FEW120/// SCT170/// 09/08 Q1009
Loading
Personal Weather Stations






























Interactive Weather Map New forecast layout! Learn more

10-Day Weather Forecast

Advertisements
Track Severe Weather on mobile